Terminal Aerodrome Forecast
Issued by NWS

Home | Current Version | Previous Version | Text Only | Print | Product List | Glossary On
Versions: 1 2 3 4 5 6 7 8 9 10 11 12 13 14 15 16 17 18 19 20 21 22
000
FTUS43 KSGF 020600 AAA
TAFJLN
TAF AMD
KJLN 020649Z 0207/0306 17009KT 5SM -TSRA BR SCT025 BKN040CB
      TEMPO 0207/0209 2SM +TSRA BR FEW007 BKN025CB
     FM021000 19007KT P6SM OVC250
     FM021300 21007KT P6SM SCT015 BKN070
     FM021700 15008KT P6SM SCT250=

USA.gov is the U.S. government's official web portal to all federal, state and local government web resources and services.